Terminal Aerodrome Forecast
Issued by NWS

Home | Current Version | Previous Version | Text Only | Print | Product List | Glossary On
Versions: 1 2 3 4 5 6 7 8 9 10 11 12 13 14 15 16 17 18 19 20 21
000
FTUS42 KTAE 191900 AAA
TAFVLD
TAF AMD
KVLD 191936Z 1920/2018 09005KT P6SM SCT040 OVC250
      TEMPO 1920/1924 3SM TSRA BKN025CB
     FM200900 04004KT 4SM BR BKN007
     FM201500 06007KT P6SM SCT009 BKN015=

USA.gov is the U.S. government's official web portal to all federal, state and local government web resources and services.